createdAt,value
2024-04-30T00:01:01.489Z,3.87
2024-04-30T00:03:31.084Z,4.93
2024-04-30T00:06:00.614Z,2.77
2024-04-30T00:08:30.084Z,5.30
2024-04-30T00:10:57.103Z,3.00
2024-04-30T00:13:23.903Z,3.13
2024-04-30T00:15:53.519Z,5.30
2024-04-30T00:18:20.278Z,4.67
2024-04-30T00:20:49.603Z,4.67
2024-04-30T00:23:19.182Z,3.60
2024-04-30T00:25:48.494Z,5.50
2024-04-30T00:28:15.307Z,6.50
2024-04-30T00:30:44.918Z,6.27
2024-04-30T00:33:11.679Z,3.80
2024-04-30T00:35:40.997Z,4.20
2024-04-30T00:38:07.721Z,4.23
2024-04-30T00:40:39.813Z,4.27
2024-04-30T00:43:06.584Z,3.53
2024-04-30T00:45:35.968Z,4.23
2024-04-30T00:48:06.175Z,7.90
2024-04-30T00:50:34.385Z,7.97
2024-04-30T00:53:05.518Z,5.80
2024-04-30T00:55:32.552Z,5.13
2024-04-30T00:58:05.018Z,5.40
2024-04-30T01:00:31.798Z,6.90
2024-04-30T01:03:01.337Z,4.93
2024-04-30T01:05:28.276Z,5.37
2024-04-30T01:07:57.568Z,4.80
2024-04-30T01:10:25.042Z,5.37
2024-04-30T01:12:56.964Z,5.73
2024-04-30T01:15:26.421Z,4.90
2024-04-30T01:17:55.995Z,6.03
2024-04-30T01:20:22.792Z,7.17
2024-04-30T01:22:54.716Z,7.10
2024-04-30T01:25:21.705Z,7.73
2024-04-30T01:27:51.032Z,6.93
2024-04-30T01:30:17.767Z,6.73
2024-04-30T01:32:47.234Z,6.20
2024-04-30T01:35:14.515Z,4.97
2024-04-30T01:37:43.843Z,9.80
2024-04-30T01:40:13.885Z,7.50
2024-04-30T01:42:43.204Z,7.07
2024-04-30T01:45:10.183Z,4.27
2024-04-30T01:47:39.884Z,5.30
2024-04-30T01:50:07.421Z,5.50
2024-04-30T01:52:36.804Z,5.93
2024-04-30T01:55:03.874Z,5.40
2024-04-30T01:57:35.962Z,6.60
2024-04-30T02:00:02.746Z,6.23
2024-04-30T02:02:32.333Z,6.13
2024-04-30T02:05:02.247Z,10.23
2024-04-30T02:07:34.359Z,7.23
2024-04-30T02:10:01.217Z,4.97
2024-04-30T02:12:30.633Z,8.53
2024-04-30T02:14:59.990Z,6.00
2024-04-30T02:17:29.895Z,8.80
2024-04-30T02:19:56.757Z,6.33
2024-04-30T02:22:26.488Z,6.73
2024-04-30T02:24:53.500Z,8.97
2024-04-30T02:27:23.053Z,5.77
2024-04-30T02:29:50.274Z,5.57
2024-04-30T02:32:38.026Z,9.03
2024-04-30T02:35:07.770Z,7.90
2024-04-30T02:37:37.185Z,5.03
2024-04-30T02:40:07.157Z,9.43
2024-04-30T02:42:36.566Z,6.73
2024-04-30T02:45:03.783Z,5.70
2024-04-30T02:47:35.899Z,7.53
2024-04-30T02:50:02.665Z,6.37
2024-04-30T02:52:32.143Z,6.70
2024-04-30T02:54:59.166Z,6.20
2024-04-30T02:57:28.816Z,5.40
2024-04-30T02:59:55.540Z,6.57
2024-04-30T03:02:24.917Z,6.40
2024-04-30T03:04:54.884Z,7.13
2024-04-30T03:07:24.302Z,6.90
2024-04-30T03:09:51.311Z,5.80
2024-04-30T03:12:20.636Z,7.90
2024-04-30T03:14:47.830Z,6.50
2024-04-30T03:17:17.580Z,8.50
2024-04-30T03:19:46.942Z,8.00
2024-04-30T03:22:16.668Z,8.47
2024-04-30T03:24:45.971Z,5.20
2024-04-30T03:27:12.750Z,7.67
2024-04-30T03:29:44.247Z,9.63
2024-04-30T03:32:10.957Z,6.07
2024-04-30T03:34:40.509Z,8.90
2024-04-30T03:37:09.833Z,6.10
2024-04-30T03:39:41.888Z,6.13
2024-04-30T03:42:12.238Z,9.90
2024-04-30T03:44:42.216Z,9.20
2024-04-30T03:47:11.837Z,10.67
2024-04-30T03:49:41.609Z,6.47
2024-04-30T03:52:11.033Z,8.47
2024-04-30T03:54:40.638Z,8.00
2024-04-30T03:57:10.278Z,7.63
2024-04-30T03:59:37.048Z,6.00
2024-04-30T04:02:06.998Z,7.80
2024-04-30T04:04:33.875Z,5.10
2024-04-30T04:07:03.552Z,7.00
2024-04-30T04:09:30.313Z,6.27
2024-04-30T04:12:18.364Z,7.53
2024-04-30T04:14:52.142Z,9.30
2024-04-30T04:17:22.948Z,15.57
2024-04-30T04:19:52.687Z,9.77
2024-04-30T04:22:22.361Z,12.83
2024-04-30T04:24:49.359Z,11.97
2024-04-30T04:27:21.553Z,11.27
2024-04-30T04:29:48.584Z,10.77
2024-04-30T04:32:18.161Z,10.07
2024-04-30T04:34:44.924Z,11.07
2024-04-30T04:37:14.512Z,8.80
2024-04-30T04:39:41.253Z,7.80
2024-04-30T04:42:11.018Z,8.03
2024-04-30T04:44:40.355Z,9.33
2024-04-30T04:47:09.882Z,13.50
2024-04-30T04:49:37.100Z,12.63
2024-04-30T04:52:07.020Z,11.30
2024-04-30T04:54:34.079Z,12.00
2024-04-30T04:57:03.420Z,9.67
2024-04-30T04:59:30.830Z,9.57
2024-04-30T05:02:03.080Z,12.20
2024-04-30T05:04:30.042Z,9.67
2024-04-30T05:07:01.894Z,15.53
2024-04-30T05:09:29.282Z,17.77
2024-04-30T05:11:58.822Z,19.10
2024-04-30T05:14:25.581Z,12.23
2024-04-30T05:16:55.329Z,10.03
2024-04-30T05:19:24.862Z,7.13
2024-04-30T05:21:54.445Z,8.70
2024-04-30T05:24:21.169Z,8.10
2024-04-30T05:26:50.747Z,8.07
2024-04-30T05:29:18.032Z,7.70
2024-04-30T05:31:47.388Z,8.50
2024-04-30T05:34:14.152Z,8.50
2024-04-30T05:36:46.303Z,7.70
2024-04-30T05:39:13.134Z,9.13
2024-04-30T05:41:42.487Z,8.27
2024-04-30T05:44:09.539Z,14.47
2024-04-30T05:46:38.959Z,11.50
2024-04-30T05:49:05.820Z,9.40
2024-04-30T05:51:35.259Z,12.13
2024-04-30T05:54:04.898Z,6.57
2024-04-30T05:56:34.474Z,9.83
2024-04-30T05:59:03.936Z,12.07
2024-04-30T06:01:30.743Z,10.37
2024-04-30T06:04:00.171Z,10.20
2024-04-30T06:06:27.058Z,11.63
2024-04-30T06:08:57.703Z,6.93
2024-04-30T06:11:27.418Z,7.83
2024-04-30T06:13:56.966Z,9.00
2024-04-30T06:16:23.795Z,9.10
2024-04-30T06:18:53.168Z,9.60
2024-04-30T06:21:30.611Z,12.00
2024-04-30T06:24:01.276Z,11.37
2024-04-30T06:26:30.592Z,11.77
2024-04-30T06:28:59.895Z,10.13
2024-04-30T06:31:26.771Z,10.80
2024-04-30T06:33:56.218Z,14.43
2024-04-30T06:36:23.280Z,13.50
2024-04-30T06:38:52.577Z,8.80
2024-04-30T06:41:19.628Z,10.87
2024-04-30T06:43:51.542Z,9.43
2024-04-30T06:46:18.331Z,10.57
2024-04-30T06:48:48.937Z,8.90
2024-04-30T06:51:16.278Z,7.93
2024-04-30T06:53:45.847Z,10.40
2024-04-30T06:56:12.615Z,8.77
2024-04-30T06:58:42.230Z,6.53
2024-04-30T07:01:11.605Z,7.67
2024-04-30T07:03:40.965Z,8.73
2024-04-30T07:06:07.743Z,10.80
2024-04-30T07:08:37.059Z,8.80
2024-04-30T07:11:04.337Z,11.67
2024-04-30T07:13:33.769Z,8.27
2024-04-30T07:16:00.743Z,8.30
2024-04-30T07:18:33.256Z,8.57
2024-04-30T07:21:02.936Z,9.40
2024-04-30T07:23:29.779Z,9.93
2024-04-30T07:25:59.058Z,8.80
2024-04-30T07:28:26.695Z,15.43
2024-04-30T07:30:56.200Z,11.93
2024-04-30T07:33:23.200Z,12.10
2024-04-30T07:35:55.189Z,6.90
2024-04-30T07:38:22.406Z,8.73
2024-04-30T07:40:51.958Z,9.60
2024-04-30T07:43:19.092Z,12.17
2024-04-30T07:45:48.439Z,10.10
2024-04-30T07:48:15.641Z,6.10
2024-04-30T07:50:44.980Z,8.10
2024-04-30T07:53:14.315Z,10.83
2024-04-30T07:55:44.049Z,6.30
2024-04-30T07:58:11.249Z,6.77
2024-04-30T08:04:37.629Z,9.07
2024-04-30T08:07:04.894Z,11.37
2024-04-30T08:09:36.880Z,9.40
2024-04-30T08:12:04.466Z,6.73
2024-04-30T08:14:36.090Z,15.37
2024-04-30T08:17:03.839Z,7.90
2024-04-30T08:19:33.608Z,10.37
2024-04-30T08:22:00.462Z,14.20
2024-04-30T08:24:30.055Z,15.37
2024-04-30T08:26:59.486Z,13.00
2024-04-30T08:29:28.819Z,9.30
2024-04-30T08:31:56.339Z,9.30
2024-04-30T08:34:25.777Z,7.27
2024-04-30T08:36:52.866Z,10.50
2024-04-30T08:39:22.196Z,5.30
2024-04-30T08:41:49.556Z,9.53
2024-04-30T08:44:23.363Z,5.57
2024-04-30T08:46:52.744Z,9.57
2024-04-30T08:49:33.718Z,7.70
2024-04-30T08:52:06.140Z,6.37
2024-04-30T08:54:37.015Z,5.40
2024-04-30T08:57:04.555Z,9.33
2024-04-30T08:59:38.758Z,5.67
2024-04-30T09:02:07.141Z,4.37
2024-04-30T09:04:39.121Z,5.60
2024-04-30T09:07:06.833Z,7.80
2024-04-30T09:09:36.300Z,5.10
2024-04-30T09:12:04.461Z,5.50
2024-04-30T09:14:45.569Z,6.10
2024-04-30T09:17:12.552Z,7.20
2024-04-30T09:19:42.250Z,7.03
2024-04-30T09:22:09.375Z,5.73
2024-04-30T09:24:49.284Z,5.50
2024-04-30T09:27:16.258Z,7.73
2024-04-30T09:29:48.220Z,5.20
2024-04-30T09:32:22.005Z,7.13
2024-04-30T09:34:54.244Z,5.63
2024-04-30T09:37:22.429Z,5.60
2024-04-30T09:39:58.372Z,4.60
2024-04-30T09:42:28.551Z,7.53
2024-04-30T09:45:03.848Z,8.33
2024-04-30T09:47:33.615Z,4.90
2024-04-30T09:50:05.280Z,4.27
2024-04-30T09:52:35.819Z,4.67
2024-04-30T09:55:06.530Z,9.90
2024-04-30T09:57:39.299Z,5.17
2024-04-30T10:00:11.558Z,5.13
2024-04-30T10:02:46.328Z,9.10
2024-04-30T10:05:19.045Z,6.90
2024-04-30T10:07:50.710Z,5.20
2024-04-30T10:10:27.374Z,3.50
2024-04-30T10:12:54.257Z,6.43
2024-04-30T10:15:33.434Z,7.77
2024-04-30T10:18:00.482Z,4.27
2024-04-30T10:20:30.176Z,5.73
2024-04-30T10:22:57.618Z,5.10
2024-04-30T10:25:27.716Z,5.20
2024-04-30T10:28:05.692Z,6.43
2024-04-30T10:30:38.518Z,8.13
2024-04-30T10:33:06.007Z,4.30
2024-04-30T10:35:42.832Z,3.67
2024-04-30T10:38:12.391Z,5.00
2024-04-30T10:40:39.508Z,5.90
2024-04-30T10:43:11.071Z,7.27
2024-04-30T10:45:40.459Z,6.20
2024-04-30T10:48:12.367Z,4.77
2024-04-30T10:50:41.892Z,5.47
2024-04-30T10:53:11.097Z,7.50
2024-04-30T10:55:43.060Z,4.60
2024-04-30T10:58:13.624Z,5.40
2024-04-30T11:00:49.216Z,4.70
2024-04-30T11:03:22.549Z,6.90
2024-04-30T11:06:01.585Z,7.60
2024-04-30T11:08:28.748Z,9.90
2024-04-30T11:11:09.784Z,10.60
2024-04-30T11:13:36.661Z,10.73
2024-04-30T11:16:14.234Z,9.87
2024-04-30T11:18:43.390Z,6.87
2024-04-30T11:21:12.791Z,9.90
2024-04-30T11:23:39.589Z,7.33
2024-04-30T11:26:08.914Z,11.50
2024-04-30T11:28:35.724Z,8.10
2024-04-30T11:31:08.091Z,8.50
2024-04-30T11:33:35.111Z,7.30
2024-04-30T11:36:04.969Z,7.93
2024-04-30T11:38:34.722Z,6.50
2024-04-30T11:41:01.594Z,8.27
2024-04-30T11:43:31.014Z,11.50
2024-04-30T11:45:57.960Z,9.90
2024-04-30T11:48:30.343Z,8.57
2024-04-30T11:50:57.343Z,10.23
2024-04-30T11:53:26.855Z,9.60
2024-04-30T11:55:53.718Z,8.73
2024-04-30T11:58:23.239Z,12.17
2024-04-30T12:00:50.370Z,6.23
2024-04-30T12:03:19.959Z,10.30
2024-04-30T12:05:52.079Z,10.07
2024-04-30T12:08:18.982Z,6.73
2024-04-30T12:10:48.647Z,7.33
2024-04-30T12:13:15.846Z,9.60
2024-04-30T12:15:45.227Z,8.30
2024-04-30T12:18:12.327Z,10.97
2024-04-30T12:20:41.959Z,10.03
2024-04-30T12:23:11.639Z,4.33
2024-04-30T12:25:41.029Z,8.33
2024-04-30T12:28:07.988Z,8.40
2024-04-30T12:30:37.359Z,7.33
2024-04-30T12:33:04.673Z,8.30
2024-04-30T12:35:35.974Z,6.20
2024-04-30T12:38:02.800Z,12.93
2024-04-30T12:40:35.522Z,7.30
2024-04-30T12:43:02.540Z,7.90
2024-04-30T12:45:32.176Z,8.20
2024-04-30T12:47:59.314Z,12.63
2024-04-30T12:50:29.139Z,8.43
2024-04-30T12:52:56.025Z,6.27
2024-04-30T12:55:25.517Z,10.53
2024-04-30T12:57:55.113Z,11.50
2024-04-30T13:00:24.524Z,14.27
2024-04-30T13:02:51.425Z,9.30
2024-04-30T13:05:20.951Z,8.13
2024-04-30T13:07:48.614Z,9.07
2024-04-30T13:10:41.416Z,10.80
2024-04-30T13:13:10.880Z,10.00
2024-04-30T13:15:40.241Z,10.87
2024-04-30T13:18:07.099Z,10.23
2024-04-30T13:20:38.476Z,9.30
2024-04-30T13:23:05.377Z,7.53
2024-04-30T13:25:34.770Z,8.50
2024-04-30T13:28:02.195Z,9.63
2024-04-30T13:30:34.233Z,11.23
2024-04-30T13:33:01.126Z,11.43
2024-04-30T13:35:31.146Z,17.33
2024-04-30T13:37:57.999Z,15.60
2024-04-30T13:40:27.907Z,10.23
2024-04-30T13:42:57.361Z,11.50
2024-04-30T13:45:24.174Z,9.50
2024-04-30T13:47:56.184Z,13.37
2024-04-30T13:50:23.298Z,15.60
2024-04-30T13:52:52.682Z,11.23
2024-04-30T13:55:19.618Z,16.83
2024-04-30T13:57:49.520Z,13.53
2024-04-30T14:00:16.648Z,15.73
2024-04-30T14:02:47.975Z,13.53
2024-04-30T14:05:17.573Z,20.90
2024-04-30T14:07:48.003Z,15.53
2024-04-30T14:10:15.055Z,14.87
2024-04-30T14:12:46.326Z,12.10
2024-04-30T14:15:15.953Z,18.07
2024-04-30T14:17:43.418Z,17.17
2024-04-30T14:20:13.216Z,10.90
2024-04-30T14:22:43.990Z,14.00
2024-04-30T14:25:13.807Z,14.23
2024-04-30T14:27:40.595Z,18.50
2024-04-30T14:30:11.462Z,13.90
2024-04-30T14:32:38.307Z,16.67
2024-04-30T14:35:08.344Z,19.60
2024-04-30T14:37:35.230Z,16.03
2024-04-30T14:40:07.827Z,15.40
2024-04-30T14:42:34.624Z,14.80
2024-04-30T14:45:04.143Z,17.00
2024-04-30T14:47:31.039Z,13.27
2024-04-30T14:50:00.556Z,19.63
2024-04-30T14:52:27.780Z,15.37
2024-04-30T14:54:58.060Z,19.23
2024-04-30T14:57:27.828Z,20.10
2024-04-30T14:59:57.451Z,17.43
2024-04-30T15:02:24.227Z,19.87
2024-04-30T15:04:53.957Z,23.37
2024-04-30T15:07:20.862Z,12.73
2024-04-30T15:09:56.207Z,18.87
2024-04-30T15:12:23.087Z,18.43
2024-04-30T15:14:55.442Z,21.23
2024-04-30T15:17:22.969Z,29.23
2024-04-30T15:19:54.297Z,20.90
2024-04-30T15:22:21.412Z,20.37
2024-04-30T15:24:50.780Z,20.07
2024-04-30T15:27:17.779Z,19.50
2024-04-30T15:29:47.310Z,21.40
2024-04-30T15:32:17.026Z,19.70
2024-04-30T15:34:46.457Z,23.00
2024-04-30T15:37:13.295Z,19.17
2024-04-30T15:39:44.405Z,19.00
2024-04-30T15:42:11.323Z,20.00
2024-04-30T15:44:41.305Z,24.77
2024-04-30T15:47:08.346Z,24.93
2024-04-30T15:49:41.126Z,29.77
2024-04-30T15:52:08.199Z,25.03
2024-04-30T15:54:37.603Z,22.70
2024-04-30T15:57:05.309Z,23.50
2024-04-30T15:59:35.679Z,22.40
2024-04-30T16:02:03.194Z,23.60
2024-04-30T16:04:32.829Z,20.90
2024-04-30T16:07:02.515Z,21.00
2024-04-30T16:09:31.881Z,16.73
2024-04-30T16:11:58.648Z,22.73
2024-04-30T16:14:28.058Z,21.60
2024-04-30T16:16:54.969Z,22.40
2024-04-30T16:19:24.565Z,16.50
2024-04-30T16:21:54.501Z,20.23
2024-04-30T16:24:27.129Z,19.73
2024-04-30T16:26:55.333Z,20.13
2024-04-30T16:29:24.723Z,16.90
2024-04-30T16:31:51.509Z,11.73
2024-04-30T16:34:20.896Z,20.40
2024-04-30T16:36:47.941Z,16.17
2024-04-30T16:39:17.409Z,20.80
2024-04-30T16:41:46.893Z,24.27
2024-04-30T16:44:16.254Z,20.87
2024-04-30T16:46:43.093Z,24.07
2024-04-30T16:49:12.543Z,22.87
2024-04-30T16:51:39.373Z,24.47
2024-04-30T16:54:09.067Z,68.33
2024-04-30T16:56:39.587Z,41.63
2024-04-30T16:59:11.555Z,31.43
2024-04-30T17:01:40.970Z,24.10
2024-04-30T17:04:10.931Z,20.27
2024-04-30T17:06:47.583Z,27.00
2024-04-30T17:09:16.823Z,21.23
2024-04-30T17:11:46.704Z,16.93
2024-04-30T17:14:16.288Z,18.50
2024-04-30T17:16:46.310Z,24.43
2024-04-30T17:19:13.444Z,29.63
2024-04-30T17:21:46.876Z,54.40
2024-04-30T17:24:14.529Z,25.03
2024-04-30T17:26:48.130Z,20.30
2024-04-30T17:29:20.215Z,25.23
2024-04-30T17:31:49.728Z,24.47
2024-04-30T17:34:19.774Z,25.73
2024-04-30T17:36:49.998Z,19.33
2024-04-30T17:39:20.213Z,20.43
2024-04-30T17:41:47.028Z,16.93
2024-04-30T17:44:16.460Z,21.57
2024-04-30T17:46:45.853Z,18.63
2024-04-30T17:49:15.824Z,16.30
2024-04-30T17:51:43.274Z,21.87
2024-04-30T17:54:12.768Z,22.07
2024-04-30T17:56:42.991Z,14.43
2024-04-30T17:59:10.248Z,19.07
2024-04-30T18:01:39.742Z,18.00
2024-04-30T18:04:09.356Z,19.13
2024-04-30T18:06:38.841Z,17.93
2024-04-30T18:09:07.131Z,16.60
2024-04-30T18:11:36.766Z,24.47
2024-04-30T18:14:03.874Z,19.60
2024-04-30T18:16:34.166Z,12.70
2024-04-30T18:19:01.273Z,19.70
2024-04-30T18:21:35.752Z,17.90
2024-04-30T18:24:04.270Z,18.80
2024-04-30T18:26:33.814Z,18.97
2024-04-30T18:29:00.602Z,10.90
2024-04-30T18:31:31.105Z,15.67
2024-04-30T18:33:58.280Z,23.33
2024-04-30T18:36:27.900Z,18.20
2024-04-30T18:38:57.558Z,15.67
2024-04-30T18:41:31.152Z,22.80
2024-04-30T18:43:59.118Z,14.10
2024-04-30T18:46:28.694Z,13.97
2024-04-30T18:48:55.871Z,17.33
2024-04-30T18:51:25.689Z,15.63
2024-04-30T18:53:52.507Z,13.93
2024-04-30T18:56:24.651Z,14.90
2024-04-30T18:58:51.477Z,13.57
2024-04-30T19:01:21.519Z,13.70
2024-04-30T19:03:51.499Z,17.27
2024-04-30T19:06:22.709Z,16.50
2024-04-30T19:08:49.733Z,20.97
2024-04-30T19:11:20.029Z,16.67
2024-04-30T19:13:49.958Z,17.90
2024-04-30T19:16:19.368Z,13.67
2024-04-30T19:18:46.337Z,20.00
2024-04-30T19:21:16.223Z,25.83
2024-04-30T19:23:43.670Z,17.53
2024-04-30T19:26:17.396Z,14.37
2024-04-30T19:28:44.470Z,15.37
2024-04-30T19:31:23.311Z,16.20
2024-04-30T19:33:50.367Z,14.30
2024-04-30T19:36:22.142Z,13.93
2024-04-30T19:38:49.996Z,12.57
2024-04-30T19:41:21.097Z,16.10
2024-04-30T19:43:48.027Z,19.77
2024-04-30T19:46:21.348Z,20.90
2024-04-30T19:48:52.524Z,19.47
2024-04-30T19:51:23.248Z,12.33
2024-04-30T19:53:51.447Z,17.70
2024-04-30T19:56:21.505Z,14.93
2024-04-30T19:58:51.728Z,15.70
2024-04-30T20:01:24.561Z,16.77
2024-04-30T20:03:57.708Z,21.43
2024-04-30T20:06:25.625Z,15.10
2024-04-30T20:08:55.141Z,14.47
2024-04-30T20:11:25.037Z,15.47
2024-04-30T20:13:56.425Z,17.60
2024-04-30T20:16:25.368Z,18.37
2024-04-30T20:18:57.990Z,20.70
2024-04-30T20:21:25.575Z,17.13
2024-04-30T20:23:55.354Z,13.87
2024-04-30T20:26:22.247Z,17.60
2024-04-30T20:28:51.599Z,17.97
2024-04-30T20:31:21.052Z,15.80
2024-04-30T20:33:47.847Z,12.90
2024-04-30T20:36:22.939Z,18.10
2024-04-30T20:38:49.970Z,15.13
2024-04-30T20:41:19.512Z,12.63
2024-04-30T20:43:46.863Z,22.10
2024-04-30T20:46:16.568Z,20.40
2024-04-30T20:48:46.203Z,16.93
2024-04-30T20:51:15.919Z,19.23
2024-04-30T20:53:47.147Z,14.47
2024-04-30T20:56:16.557Z,19.97
2024-04-30T20:58:43.322Z,17.57
2024-04-30T21:01:17.172Z,12.60
2024-04-30T21:03:44.607Z,13.50
2024-04-30T21:06:14.317Z,15.60
2024-04-30T21:08:41.090Z,17.00
2024-04-30T21:11:17.066Z,17.70
2024-04-30T21:13:43.971Z,15.53
2024-04-30T21:16:13.886Z,16.00
2024-04-30T21:18:41.085Z,15.97
2024-04-30T21:21:10.716Z,16.00
2024-04-30T21:23:39.731Z,14.17
2024-04-30T21:26:10.558Z,16.00
2024-04-30T21:28:43.691Z,16.10
2024-04-30T21:31:10.757Z,19.60
2024-04-30T21:33:43.647Z,17.93
2024-04-30T21:36:11.596Z,15.67
2024-04-30T21:38:41.002Z,18.20
2024-04-30T21:41:08.068Z,17.67
2024-04-30T21:43:37.467Z,19.63
2024-04-30T21:46:07.148Z,19.13
2024-04-30T21:52:24.070Z,18.50
2024-04-30T21:54:50.891Z,25.93
2024-04-30T21:57:20.396Z,22.57
2024-04-30T21:59:47.171Z,13.27
2024-04-30T22:02:19.366Z,14.13
2024-04-30T22:04:46.750Z,15.27
2024-04-30T22:07:20.808Z,12.73
2024-04-30T22:09:48.474Z,19.13
2024-04-30T22:12:18.346Z,24.47
2024-04-30T22:14:45.469Z,19.07
2024-04-30T22:17:15.067Z,18.13
2024-04-30T22:19:44.430Z,14.73
2024-04-30T22:22:14.035Z,17.20
2024-04-30T22:24:41.117Z,14.03
2024-04-30T22:27:10.623Z,24.97
2024-04-30T22:29:37.349Z,16.33
2024-04-30T22:32:08.934Z,15.47
2024-04-30T22:34:35.975Z,20.80
2024-04-30T22:37:07.979Z,17.07
2024-04-30T22:39:35.023Z,16.40
2024-04-30T22:42:04.377Z,12.80
2024-04-30T22:44:34.050Z,14.50
2024-04-30T22:47:00.828Z,18.00
2024-04-30T22:49:31.866Z,15.07
2024-04-30T22:51:58.729Z,14.70
2024-04-30T22:54:30.736Z,15.03
2024-04-30T22:56:57.721Z,13.30
2024-04-30T22:59:27.151Z,13.80
2024-04-30T23:01:54.078Z,18.10
2024-04-30T23:04:23.557Z,16.60
2024-04-30T23:06:50.384Z,16.40
2024-04-30T23:09:19.814Z,9.87
2024-04-30T23:11:49.506Z,16.03
2024-04-30T23:14:19.081Z,12.10
2024-04-30T23:16:45.860Z,13.60
2024-04-30T23:19:15.541Z,14.30
2024-04-30T23:21:42.371Z,15.57
2024-04-30T23:24:12.015Z,12.90
2024-04-30T23:26:39.044Z,15.17
2024-04-30T23:29:10.972Z,12.37
2024-04-30T23:31:37.764Z,15.43
2024-04-30T23:34:07.373Z,15.60
2024-04-30T23:36:34.168Z,10.70
2024-04-30T23:39:03.744Z,10.13
2024-04-30T23:41:30.631Z,19.40
2024-04-30T23:44:00.017Z,16.13
2024-04-30T23:46:29.479Z,9.80
2024-04-30T23:48:59.230Z,14.30
2024-04-30T23:51:26.126Z,9.63
2024-04-30T23:53:55.732Z,10.00
2024-04-30T23:56:22.862Z,11.43
2024-04-30T23:58:52.230Z,19.07
